createdAt,value
2018-11-05T00:00:56.262Z,16.50
2018-11-05T00:01:56.439Z,18.20
2018-11-05T00:02:56.614Z,17.70
2018-11-05T00:03:56.793Z,18.90
2018-11-05T00:04:56.978Z,19.60
2018-11-05T00:05:57.160Z,18.80
2018-11-05T00:06:57.325Z,16.10
2018-11-05T00:07:57.505Z,18.70
2018-11-05T00:08:57.681Z,18.00
2018-11-05T00:09:57.853Z,17.10
2018-11-05T00:10:58.029Z,16.90
2018-11-05T00:11:58.207Z,16.50
2018-11-05T00:12:58.388Z,18.10
2018-11-05T00:13:58.557Z,18.00
2018-11-05T00:14:58.733Z,17.40
2018-11-05T00:15:58.908Z,18.30
2018-11-05T00:16:59.089Z,17.90
2018-11-05T00:17:59.262Z,17.20
2018-11-05T00:18:59.441Z,18.50
2018-11-05T00:19:59.624Z,16.80
2018-11-05T00:20:59.792Z,17.80
2018-11-05T00:21:59.977Z,17.40
2018-11-05T00:23:00.145Z,16.40
2018-11-05T00:24:00.323Z,17.60
2018-11-05T00:25:00.498Z,17.00
2018-11-05T00:26:00.674Z,17.70
2018-11-05T00:27:00.852Z,17.20
2018-11-05T00:28:01.028Z,18.80
2018-11-05T00:29:01.204Z,17.10
2018-11-05T00:30:01.384Z,15.60
2018-11-05T00:31:01.570Z,17.60
2018-11-05T00:32:01.743Z,17.50
2018-11-05T00:33:01.914Z,16.60
2018-11-05T00:34:02.096Z,18.90
2018-11-05T00:35:02.257Z,17.50
2018-11-05T00:36:02.437Z,16.80
2018-11-05T00:37:02.617Z,17.90
2018-11-05T00:38:02.795Z,19.30
2018-11-05T00:39:02.968Z,19.80
2018-11-05T00:40:03.142Z,19.60
2018-11-05T00:41:03.324Z,18.00
2018-11-05T00:42:03.506Z,17.60
2018-11-05T00:43:03.682Z,17.90
2018-11-05T00:44:03.870Z,18.40
2018-11-05T00:45:04.040Z,17.50
2018-11-05T00:46:04.216Z,17.40
2018-11-05T00:47:04.390Z,18.20
2018-11-05T00:48:04.567Z,17.20
2018-11-05T00:49:04.751Z,17.60
2018-11-05T00:50:04.921Z,18.00
2018-11-05T00:51:05.099Z,19.10
2018-11-05T00:52:05.270Z,17.90
2018-11-05T00:53:05.444Z,18.50
2018-11-05T00:54:05.620Z,16.60
2018-11-05T00:55:05.792Z,17.90
2018-11-05T00:56:05.980Z,17.00
2018-11-05T00:57:06.142Z,17.80
2018-11-05T00:58:06.320Z,16.90
2018-11-05T00:59:06.507Z,18.00
2018-11-05T01:00:06.669Z,18.70
2018-11-05T01:01:06.851Z,18.10
2018-11-05T01:02:07.015Z,19.50
2018-11-05T01:03:07.189Z,19.10
2018-11-05T01:04:07.368Z,18.30
2018-11-05T01:05:07.547Z,18.50
2018-11-05T01:06:07.728Z,18.60
2018-11-05T01:07:07.897Z,16.20
2018-11-05T01:08:08.084Z,18.70
2018-11-05T01:09:08.241Z,18.30
2018-11-05T01:10:08.417Z,18.90
2018-11-05T01:11:08.595Z,17.80
2018-11-05T01:12:08.769Z,19.30
2018-11-05T01:13:08.948Z,17.50
2018-11-05T01:14:09.119Z,18.10
2018-11-05T01:15:09.298Z,16.50
2018-11-05T01:16:09.479Z,20.10
2018-11-05T01:17:09.659Z,17.00
2018-11-05T01:18:09.828Z,20.50
2018-11-05T01:19:10.008Z,18.50
2018-11-05T01:20:10.187Z,17.90
2018-11-05T01:21:10.367Z,16.60
2018-11-05T01:22:10.539Z,18.10
2018-11-05T01:23:10.715Z,16.70
2018-11-05T01:24:10.893Z,16.70
2018-11-05T01:25:11.074Z,17.90
2018-11-05T01:26:11.252Z,18.00
2018-11-05T01:27:11.428Z,18.20
2018-11-05T01:28:11.604Z,17.50
2018-11-05T01:29:11.783Z,16.10
2018-11-05T01:30:11.955Z,17.20
2018-11-05T01:31:12.133Z,16.40
2018-11-05T01:32:12.312Z,17.00
2018-11-05T01:33:12.479Z,16.70
2018-11-05T01:34:12.664Z,16.20
2018-11-05T01:35:12.830Z,16.50
2018-11-05T01:36:13.006Z,17.70
2018-11-05T01:37:13.259Z,17.40
2018-11-05T01:38:13.362Z,16.50
2018-11-05T01:39:13.539Z,15.80
2018-11-05T01:40:13.717Z,18.80
2018-11-05T01:41:13.891Z,18.40
2018-11-05T01:42:14.065Z,17.60
2018-11-05T01:43:14.241Z,17.00
2018-11-05T01:44:14.416Z,17.70
2018-11-05T01:45:14.604Z,16.90
2018-11-05T01:46:14.774Z,18.80
2018-11-05T01:47:14.947Z,15.80
2018-11-05T01:48:15.123Z,16.60
2018-11-05T01:49:15.297Z,16.80
2018-11-05T01:50:15.472Z,17.30
2018-11-05T01:51:15.654Z,18.10
2018-11-05T01:52:15.837Z,17.50
2018-11-05T01:53:16.013Z,16.00
2018-11-05T01:54:16.182Z,16.80
2018-11-05T01:55:16.363Z,16.50
2018-11-05T01:56:16.529Z,16.30
2018-11-05T01:57:16.705Z,17.60
2018-11-05T01:58:16.883Z,17.90
2018-11-05T01:59:17.057Z,17.20
2018-11-05T02:00:17.232Z,17.70
2018-11-05T02:01:17.413Z,18.50
2018-11-05T02:02:17.589Z,17.80
2018-11-05T02:03:17.820Z,16.80
2018-11-05T02:04:17.923Z,18.60
2018-11-05T02:05:18.105Z,17.00
2018-11-05T02:06:18.277Z,15.20
2018-11-05T02:07:18.459Z,17.30
2018-11-05T02:08:18.630Z,16.50
2018-11-05T02:09:18.815Z,16.90
2018-11-05T02:10:19.057Z,17.50
2018-11-05T02:11:19.156Z,16.00
2018-11-05T02:12:19.336Z,17.60
2018-11-05T02:13:19.581Z,15.60
2018-11-05T02:14:19.687Z,15.70
2018-11-05T02:15:19.860Z,17.20
2018-11-05T02:16:20.037Z,15.60
2018-11-05T02:17:20.219Z,18.30
2018-11-05T02:18:20.391Z,16.80
2018-11-05T02:19:20.567Z,16.60
2018-11-05T02:20:20.746Z,17.10
2018-11-05T02:21:20.922Z,18.10
2018-11-05T02:22:21.127Z,17.30
2018-11-05T02:23:21.271Z,16.70
2018-11-05T02:24:21.451Z,15.40
2018-11-05T02:25:21.625Z,16.70
2018-11-05T02:26:21.798Z,16.40
2018-11-05T02:27:21.999Z,17.70
2018-11-05T02:28:22.151Z,17.10
2018-11-05T02:29:22.331Z,16.40
2018-11-05T02:30:22.503Z,19.60
2018-11-05T02:31:22.680Z,18.20
2018-11-05T02:32:22.866Z,19.30
2018-11-05T02:33:23.033Z,18.20
2018-11-05T02:34:23.211Z,17.20
2018-11-05T02:35:23.391Z,18.10
2018-11-05T02:36:23.562Z,17.30
2018-11-05T02:37:23.736Z,18.60
2018-11-05T02:38:23.914Z,19.10
2018-11-05T02:39:24.090Z,17.60
2018-11-05T02:40:24.261Z,18.40
2018-11-05T02:41:24.442Z,19.00
2018-11-05T02:42:24.612Z,19.40
2018-11-05T02:43:24.791Z,19.00
2018-11-05T02:44:24.956Z,19.30
2018-11-05T02:45:25.142Z,19.90
2018-11-05T02:46:25.315Z,17.20
2018-11-05T02:47:25.489Z,19.10
2018-11-05T02:48:25.667Z,17.70
2018-11-05T02:49:25.851Z,18.00
2018-11-05T02:50:26.017Z,17.90
2018-11-05T02:51:26.193Z,18.40
2018-11-05T02:52:26.362Z,18.60
2018-11-05T02:53:26.541Z,19.30
2018-11-05T02:54:26.718Z,19.20
2018-11-05T02:55:26.892Z,20.60
2018-11-05T02:56:27.067Z,18.00
2018-11-05T02:57:27.244Z,20.70
2018-11-05T02:58:27.419Z,17.20
2018-11-05T02:59:27.597Z,20.80
2018-11-05T03:00:27.775Z,20.00
2018-11-05T03:01:27.947Z,18.10
2018-11-05T03:02:28.127Z,19.50
2018-11-05T03:03:28.301Z,18.30
2018-11-05T03:04:28.479Z,19.60
2018-11-05T03:05:28.658Z,18.60
2018-11-05T03:06:28.835Z,19.80
2018-11-05T03:07:29.010Z,19.30
2018-11-05T03:08:29.188Z,18.90
2018-11-05T03:09:29.362Z,20.10
2018-11-05T03:10:29.542Z,19.40
2018-11-05T03:11:29.712Z,17.70
2018-11-05T03:12:29.891Z,18.30
2018-11-05T03:13:30.070Z,17.40
2018-11-05T03:14:30.257Z,18.60
2018-11-05T03:15:30.428Z,20.40
2018-11-05T03:16:30.603Z,18.90
2018-11-05T03:17:30.782Z,20.70
2018-11-05T03:18:30.956Z,18.50
2018-11-05T03:19:31.135Z,18.40
2018-11-05T03:20:31.310Z,17.80
2018-11-05T03:21:31.489Z,20.00
2018-11-05T03:22:31.664Z,20.00
2018-11-05T03:23:31.839Z,18.80
2018-11-05T03:24:32.038Z,19.70
2018-11-05T03:25:32.199Z,18.70
2018-11-05T03:26:32.371Z,20.20
2018-11-05T03:27:32.547Z,20.80
2018-11-05T03:28:32.728Z,20.50
2018-11-05T03:29:32.905Z,18.50
2018-11-05T03:30:33.082Z,20.70
2018-11-05T03:31:33.262Z,19.00
2018-11-05T03:32:33.446Z,20.40
2018-11-05T03:33:33.614Z,19.60
2018-11-05T03:34:33.786Z,21.40
2018-11-05T03:35:33.984Z,19.50
2018-11-05T03:36:34.138Z,18.80
2018-11-05T03:37:34.321Z,20.50
2018-11-05T03:38:34.488Z,18.80
2018-11-05T03:40:34.842Z,20.60
2018-11-05T03:41:35.020Z,19.30
2018-11-05T03:42:35.190Z,21.20
2018-11-05T03:43:35.374Z,18.90
2018-11-05T03:44:35.547Z,19.90
2018-11-05T03:45:35.717Z,20.00
2018-11-05T03:46:35.893Z,18.50
2018-11-05T03:47:36.075Z,18.10
2018-11-05T03:48:36.261Z,19.80
2018-11-05T03:49:36.427Z,20.30
2018-11-05T03:50:36.601Z,21.00
2018-11-05T03:51:36.770Z,20.60
2018-11-05T03:52:36.948Z,19.30
2018-11-05T03:53:37.123Z,20.20
2018-11-05T03:54:37.299Z,20.50
2018-11-05T03:55:37.542Z,20.60
2018-11-05T03:56:37.814Z,20.20
2018-11-05T03:57:37.830Z,22.30
2018-11-05T03:58:38.008Z,22.00
2018-11-05T03:59:38.179Z,20.80
2018-11-05T04:00:38.355Z,20.80
2018-11-05T04:01:38.533Z,22.00
2018-11-05T04:02:38.710Z,21.60
2018-11-05T04:03:38.887Z,20.60
2018-11-05T04:04:39.062Z,24.90
2018-11-05T04:05:39.239Z,21.60
2018-11-05T04:06:39.415Z,20.80
2018-11-05T04:07:39.592Z,21.90
2018-11-05T04:08:39.767Z,23.40
2018-11-05T04:09:39.941Z,20.50
2018-11-05T04:10:40.122Z,20.40
2018-11-05T04:11:40.296Z,22.20
2018-11-05T04:12:40.476Z,22.50
2018-11-05T04:13:40.648Z,21.60
2018-11-05T04:14:40.826Z,23.90
2018-11-05T04:15:41.216Z,21.30
2018-11-05T04:16:41.173Z,23.60
2018-11-05T04:17:41.361Z,21.60
2018-11-05T04:18:41.524Z,22.80
2018-11-05T04:19:41.700Z,22.70
2018-11-05T04:20:41.874Z,21.90
2018-11-05T04:21:42.052Z,22.10
2018-11-05T04:22:42.227Z,23.50
2018-11-05T04:23:42.401Z,21.60
2018-11-05T04:24:42.579Z,24.10
2018-11-05T04:25:42.757Z,24.20
2018-11-05T04:26:42.937Z,23.90
2018-11-05T04:27:43.168Z,24.90
2018-11-05T04:28:43.282Z,29.50
2018-11-05T04:29:43.464Z,22.50
2018-11-05T04:30:43.654Z,24.80
2018-11-05T04:31:43.818Z,23.20
2018-11-05T04:32:43.994Z,24.80
2018-11-05T04:33:44.176Z,23.90
2018-11-05T04:34:44.338Z,23.90
2018-11-05T04:35:44.536Z,23.90
2018-11-05T04:36:44.699Z,24.40
2018-11-05T04:37:44.872Z,24.60
2018-11-05T04:38:45.045Z,23.50
2018-11-05T04:39:45.225Z,24.40
2018-11-05T04:40:45.407Z,24.90
2018-11-05T04:41:45.587Z,25.70
2018-11-05T04:42:45.785Z,24.50
2018-11-05T04:43:45.927Z,26.40
2018-11-05T04:44:46.100Z,24.60
2018-11-05T04:45:46.267Z,24.80
2018-11-05T04:46:46.442Z,25.30
2018-11-05T04:47:46.623Z,26.20
2018-11-05T04:48:46.797Z,24.50
2018-11-05T04:49:46.981Z,24.60
2018-11-05T04:50:47.149Z,25.60
2018-11-05T04:51:47.331Z,26.20
2018-11-05T04:52:47.492Z,26.50
2018-11-05T04:53:47.673Z,24.90
2018-11-05T04:54:47.846Z,26.00
2018-11-05T04:55:48.020Z,22.30
2018-11-05T04:56:48.203Z,24.10
2018-11-05T04:57:48.374Z,24.30
2018-11-05T04:58:48.551Z,24.80
2018-11-05T04:59:48.729Z,27.10
2018-11-05T05:00:48.919Z,23.80
2018-11-05T05:01:49.160Z,24.60
2018-11-05T05:02:49.282Z,23.80
2018-11-05T05:03:49.457Z,25.90
2018-11-05T05:04:49.628Z,24.20
2018-11-05T05:05:49.859Z,23.20
2018-11-05T05:06:49.974Z,23.30
2018-11-05T05:07:50.154Z,25.00
2018-11-05T05:08:50.325Z,24.30
2018-11-05T05:09:50.505Z,26.70
2018-11-05T05:10:50.680Z,27.50
2018-11-05T05:11:50.854Z,25.30
2018-11-05T05:12:51.034Z,23.60
2018-11-05T05:13:51.216Z,25.20
2018-11-05T05:14:51.395Z,26.50
2018-11-05T05:15:51.568Z,24.70
2018-11-05T05:16:51.750Z,26.10
2018-11-05T05:17:51.918Z,25.00
2018-11-05T05:18:52.094Z,24.80
2018-11-05T05:19:52.278Z,27.30
2018-11-05T05:20:52.454Z,25.40
2018-11-05T05:21:52.625Z,25.20
2018-11-05T05:22:52.973Z,25.50
2018-11-05T05:23:52.989Z,22.90
2018-11-05T05:24:53.147Z,23.90
2018-11-05T05:25:53.323Z,25.60
2018-11-05T05:26:53.504Z,24.20
2018-11-05T05:27:53.698Z,25.20
2018-11-05T05:28:53.864Z,25.80
2018-11-05T05:29:54.033Z,25.40
2018-11-05T05:30:54.213Z,23.70
2018-11-05T05:31:54.393Z,25.40
2018-11-05T05:32:54.581Z,25.60
2018-11-05T05:33:54.743Z,24.50
2018-11-05T05:34:54.919Z,24.50
2018-11-05T05:35:55.100Z,28.70
2018-11-05T05:36:55.279Z,24.90
2018-11-05T05:37:55.457Z,24.90
2018-11-05T05:38:55.622Z,25.90
2018-11-05T05:39:55.796Z,26.70
2018-11-05T05:40:56.131Z,25.10
2018-11-05T05:41:56.145Z,25.60
2018-11-05T05:42:56.329Z,26.00
2018-11-05T05:43:56.501Z,25.90
2018-11-05T05:44:56.679Z,24.20
2018-11-05T05:45:56.857Z,25.20
2018-11-05T05:46:57.032Z,27.30
2018-11-05T05:47:57.214Z,27.30
2018-11-05T05:48:57.390Z,27.20
2018-11-05T05:49:57.565Z,25.10
2018-11-05T05:50:57.739Z,23.90
2018-11-05T05:51:57.916Z,25.10
2018-11-05T05:52:58.085Z,24.70
2018-11-05T05:53:58.279Z,22.90
2018-11-05T05:54:58.454Z,23.80
2018-11-05T05:55:58.629Z,23.10
2018-11-05T05:56:58.807Z,23.80
2018-11-05T05:57:58.980Z,23.00
2018-11-05T05:58:59.153Z,21.80
2018-11-05T05:59:59.403Z,22.70
2018-11-05T06:00:59.514Z,25.60
2018-11-05T06:01:59.684Z,23.10
2018-11-05T06:02:59.864Z,22.70
2018-11-05T06:04:00.036Z,25.30
2018-11-05T06:05:00.213Z,25.00
2018-11-05T06:06:00.505Z,22.70
2018-11-05T06:07:00.567Z,21.00
2018-11-05T06:08:00.752Z,22.80
2018-11-05T06:09:00.922Z,20.00
2018-11-05T06:10:01.101Z,20.60
2018-11-05T06:11:01.274Z,19.00
2018-11-05T06:12:01.448Z,18.90
2018-11-05T06:13:01.626Z,17.00
2018-11-05T06:14:01.802Z,17.80
2018-11-05T06:15:01.979Z,18.40
2018-11-05T06:16:02.272Z,17.20
2018-11-05T06:17:02.323Z,16.80
2018-11-05T06:18:02.505Z,18.30
2018-11-05T06:19:02.681Z,17.50
2018-11-05T06:20:02.861Z,19.90
2018-11-05T06:21:03.046Z,16.10
2018-11-05T06:22:03.239Z,17.70
2018-11-05T06:23:03.415Z,15.70
2018-11-05T06:24:03.568Z,17.40
2018-11-05T06:25:03.743Z,15.50
2018-11-05T06:26:03.921Z,15.40
2018-11-05T06:27:04.115Z,14.70
2018-11-05T06:28:04.279Z,15.20
2018-11-05T06:29:04.451Z,16.40
2018-11-05T06:30:04.635Z,15.10
2018-11-05T06:31:04.800Z,15.90
2018-11-05T06:33:05.145Z,16.90
2018-11-05T06:34:05.317Z,14.00
2018-11-05T06:35:05.533Z,15.70
2018-11-05T06:36:05.667Z,16.30
2018-11-05T06:37:05.844Z,15.40
2018-11-05T06:38:06.012Z,16.10
2018-11-05T06:39:06.181Z,17.00
2018-11-05T06:40:06.353Z,18.50
2018-11-05T06:41:06.546Z,15.20
2018-11-05T06:42:06.702Z,17.70
2018-11-05T06:43:06.876Z,16.30
2018-11-05T06:44:07.097Z,15.90
2018-11-05T06:45:07.276Z,16.70
2018-11-05T06:46:07.394Z,16.80
2018-11-05T06:47:07.569Z,17.60
2018-11-05T06:48:07.744Z,16.60
2018-11-05T06:49:07.924Z,15.70
2018-11-05T06:50:08.097Z,15.90
2018-11-05T06:51:08.269Z,15.00
2018-11-05T06:52:08.453Z,16.90
2018-11-05T06:53:08.621Z,16.40
2018-11-05T06:54:08.801Z,16.20
2018-11-05T06:55:08.972Z,18.20
2018-11-05T06:56:09.146Z,17.20
2018-11-05T06:57:09.319Z,17.20
2018-11-05T06:58:09.506Z,18.20
2018-11-05T06:59:09.690Z,17.90
2018-11-05T07:00:09.859Z,18.30
2018-11-05T07:01:10.041Z,18.30
2018-11-05T07:02:10.215Z,20.80
2018-11-05T07:03:10.390Z,17.40
2018-11-05T07:04:10.559Z,18.30
2018-11-05T07:05:10.727Z,18.90
2018-11-05T07:06:10.902Z,17.10
2018-11-05T07:07:11.075Z,18.60
2018-11-05T07:08:11.259Z,18.70
2018-11-05T07:09:11.420Z,18.00
2018-11-05T07:10:11.607Z,20.10
2018-11-05T07:11:11.841Z,20.00
2018-11-05T07:12:11.940Z,19.70
2018-11-05T07:13:12.115Z,14.40
2018-11-05T07:14:12.288Z,16.70
2018-11-05T07:15:12.468Z,15.70
2018-11-05T07:16:12.638Z,16.70
2018-11-05T07:17:12.818Z,15.80
2018-11-05T07:18:13.045Z,15.10
2018-11-05T07:19:13.596Z,17.50
2018-11-05T07:20:13.333Z,16.80
2018-11-05T07:21:13.505Z,14.70
2018-11-05T07:22:13.706Z,15.30
2018-11-05T07:23:13.855Z,15.10
2018-11-05T07:24:14.036Z,14.50
2018-11-05T07:25:14.215Z,14.40
2018-11-05T07:26:14.386Z,15.10
2018-11-05T07:27:14.555Z,14.70
2018-11-05T07:28:14.728Z,14.50
2018-11-05T07:29:14.919Z,14.30
2018-11-05T07:30:15.093Z,15.10
2018-11-05T07:31:15.255Z,16.30
2018-11-05T07:32:15.427Z,16.00
2018-11-05T07:33:15.695Z,17.10
2018-11-05T07:34:15.793Z,15.30
2018-11-05T07:35:15.955Z,15.20
2018-11-05T07:36:16.127Z,16.30
2018-11-05T07:37:16.302Z,17.60
2018-11-05T07:38:16.474Z,15.70
2018-11-05T07:39:16.650Z,16.40
2018-11-05T07:40:16.824Z,15.60
2018-11-05T07:41:16.999Z,15.00
2018-11-05T07:42:17.182Z,15.90
2018-11-05T07:43:17.350Z,16.30
2018-11-05T07:44:17.540Z,15.00
2018-11-05T07:45:17.706Z,14.50
2018-11-05T07:46:17.874Z,15.90
2018-11-05T07:47:18.056Z,21.10
2018-11-05T07:48:18.224Z,16.30
2018-11-05T07:49:18.402Z,15.60
2018-11-05T07:50:18.661Z,16.10
2018-11-05T07:51:18.757Z,16.60
2018-11-05T07:52:18.974Z,15.70
2018-11-05T07:53:19.112Z,15.20
2018-11-05T07:54:19.291Z,18.00
2018-11-05T07:55:19.473Z,16.60
2018-11-05T07:56:19.743Z,17.20
2018-11-05T07:57:19.820Z,15.80
2018-11-05T07:58:19.995Z,17.50
2018-11-05T07:59:20.183Z,18.80
2018-11-05T08:00:20.344Z,19.10
2018-11-05T08:01:20.521Z,17.70
2018-11-05T08:02:20.694Z,15.10
2018-11-05T08:03:20.858Z,16.10
2018-11-05T08:04:21.038Z,14.60
2018-11-05T08:05:21.206Z,16.80
2018-11-05T08:06:21.372Z,18.00
2018-11-05T08:07:21.546Z,15.40
2018-11-05T08:08:21.796Z,16.10
2018-11-05T08:09:21.897Z,17.20
2018-11-05T08:10:22.110Z,15.70
2018-11-05T08:11:22.276Z,15.80
2018-11-05T08:12:23.442Z,14.80
2018-11-05T08:13:22.599Z,14.70
2018-11-05T08:14:22.849Z,13.80
2018-11-05T08:15:22.938Z,16.30
2018-11-05T08:16:23.097Z,13.80
2018-11-05T08:17:23.267Z,17.00
2018-11-05T08:18:23.451Z,14.70
2018-11-05T08:19:23.626Z,15.60
2018-11-05T08:20:23.794Z,14.80
2018-11-05T08:21:23.976Z,16.30
2018-11-05T08:22:24.145Z,17.50
2018-11-05T08:23:24.326Z,15.90
2018-11-05T08:24:24.482Z,16.70
2018-11-05T08:25:24.657Z,15.00
2018-11-05T08:26:24.839Z,15.40
2018-11-05T08:27:25.030Z,16.90
2018-11-05T08:28:25.182Z,21.30
2018-11-05T08:29:25.360Z,17.50
2018-11-05T08:30:25.538Z,17.70
2018-11-05T08:31:25.712Z,15.20
2018-11-05T08:32:25.897Z,16.00
2018-11-05T08:33:26.064Z,16.60
2018-11-05T08:34:26.442Z,16.60
2018-11-05T08:35:26.420Z,18.40
2018-11-05T08:36:26.574Z,16.00
2018-11-05T08:37:26.756Z,17.40
2018-11-05T08:38:26.932Z,17.90
2018-11-05T08:39:27.103Z,19.70
2018-11-05T08:40:27.421Z,18.00
2018-11-05T08:41:27.468Z,16.70
2018-11-05T08:42:27.627Z,18.20
2018-11-05T08:43:27.798Z,16.30
2018-11-05T08:44:27.981Z,16.40
2018-11-05T08:45:28.146Z,15.80
2018-11-05T08:46:28.323Z,15.20
2018-11-05T08:47:28.500Z,117.90
2018-11-05T08:48:28.679Z,425.70
2018-11-05T08:49:28.831Z,318.40
2018-11-05T08:50:29.103Z,70.90
2018-11-05T08:51:29.601Z,18.50
2018-11-05T08:52:29.364Z,20.30
2018-11-05T08:53:29.534Z,18.10
2018-11-05T08:54:29.707Z,16.20
2018-11-05T08:55:29.883Z,17.10
2018-11-05T08:56:30.053Z,17.60
2018-11-05T08:57:30.272Z,16.10
2018-11-05T08:58:30.412Z,18.30
2018-11-05T08:59:30.587Z,15.60
2018-11-05T09:00:30.766Z,16.50
2018-11-05T09:01:30.943Z,16.00
2018-11-05T09:02:31.121Z,18.70
2018-11-05T09:03:31.304Z,16.70
2018-11-05T09:04:31.541Z,16.70
2018-11-05T09:05:31.661Z,18.00
2018-11-05T09:06:31.832Z,18.50
2018-11-05T09:07:32.010Z,14.50
2018-11-05T09:08:32.202Z,15.70
2018-11-05T09:09:32.368Z,16.30
2018-11-05T09:10:32.707Z,15.40
2018-11-05T09:11:33.033Z,16.10
2018-11-05T09:12:32.904Z,15.30
2018-11-05T09:13:33.066Z,15.00
2018-11-05T09:14:33.246Z,14.00
2018-11-05T09:15:33.429Z,15.00
2018-11-05T09:16:33.599Z,14.70
2018-11-05T09:17:33.775Z,18.10
2018-11-05T09:18:33.988Z,15.00
2018-11-05T09:19:34.184Z,15.50
2018-11-05T09:20:34.359Z,15.50
2018-11-05T09:21:34.502Z,15.40
2018-11-05T09:22:34.899Z,15.00
2018-11-05T09:23:34.925Z,16.60
2018-11-05T09:24:35.266Z,17.30
2018-11-05T09:25:35.302Z,18.40
2018-11-05T09:26:35.496Z,15.80
2018-11-05T09:27:35.662Z,14.30
2018-11-05T09:28:35.828Z,15.20
2018-11-05T09:29:36.005Z,16.10
2018-11-05T09:30:36.213Z,14.30
2018-11-05T09:31:36.360Z,15.80
2018-11-05T09:32:36.540Z,15.50
2018-11-05T09:33:36.719Z,15.40
2018-11-05T09:34:36.897Z,14.80
2018-11-05T09:35:37.099Z,19.60
2018-11-05T09:36:37.234Z,33.10
2018-11-05T09:37:37.416Z,17.40
2018-11-05T09:38:37.592Z,15.40
2018-11-05T09:39:37.774Z,15.60
2018-11-05T09:40:37.950Z,14.90
2018-11-05T09:41:38.136Z,15.70
2018-11-05T09:42:38.328Z,15.90
2018-11-05T09:43:38.480Z,16.20
2018-11-05T09:44:38.692Z,16.50
2018-11-05T09:45:38.839Z,17.40
2018-11-05T09:46:39.010Z,16.50
2018-11-05T09:47:39.196Z,16.00
2018-11-05T09:48:39.366Z,16.40
2018-11-05T09:49:39.647Z,15.10
2018-11-05T09:50:39.786Z,16.70
2018-11-05T09:51:39.898Z,15.70
2018-11-05T09:52:40.145Z,15.50
2018-11-05T09:53:40.279Z,16.50
2018-11-05T09:54:40.453Z,16.30
2018-11-05T09:55:40.693Z,18.30
2018-11-05T09:56:40.826Z,17.80
2018-11-05T09:57:40.989Z,18.10
2018-11-05T09:58:41.171Z,18.00
2018-11-05T09:59:41.354Z,20.30
2018-11-05T10:00:41.543Z,22.00
2018-11-05T10:01:41.719Z,18.80
2018-11-05T10:02:42.001Z,16.20
2018-11-05T10:03:42.181Z,17.50
2018-11-05T10:04:42.640Z,17.50
2018-11-05T10:05:42.438Z,20.80
2018-11-05T10:06:42.614Z,17.90
2018-11-05T10:07:42.796Z,17.60
2018-11-05T10:08:42.976Z,18.30
2018-11-05T10:09:43.381Z,19.10
2018-11-05T10:11:43.521Z,22.30
2018-11-05T10:12:43.885Z,18.00
2018-11-05T10:13:43.917Z,17.40
2018-11-05T10:14:44.095Z,19.70
2018-11-05T10:15:44.281Z,20.10
2018-11-05T10:16:44.500Z,18.30
2018-11-05T10:17:44.646Z,18.40
2018-11-05T10:18:44.808Z,17.20
2018-11-05T10:19:44.999Z,16.80
2018-11-05T10:21:45.352Z,18.70
2018-11-05T10:22:45.533Z,18.50
2018-11-05T10:23:45.715Z,19.80
2018-11-05T10:24:46.006Z,18.80
2018-11-05T10:25:46.084Z,18.00
2018-11-05T10:26:46.275Z,17.90
2018-11-05T10:27:46.434Z,19.20
2018-11-05T10:28:46.618Z,21.00
2018-11-05T10:29:46.797Z,19.90
2018-11-05T10:30:46.979Z,20.30
2018-11-05T10:31:47.166Z,21.30
2018-11-05T10:32:47.334Z,19.90
2018-11-05T10:33:47.730Z,20.00
2018-11-05T10:34:47.708Z,22.10
2018-11-05T10:35:47.895Z,21.20
2018-11-05T10:36:48.056Z,23.90
2018-11-05T10:37:48.235Z,24.40
2018-11-05T10:38:48.389Z,27.40
2018-11-05T10:39:48.579Z,20.80
2018-11-05T10:40:48.753Z,19.30
2018-11-05T10:41:48.935Z,86.60
2018-11-05T10:42:49.127Z,81.70
2018-11-05T10:43:49.311Z,42.00
2018-11-05T10:44:49.472Z,21.10
2018-11-05T10:45:49.679Z,19.80
2018-11-05T10:46:49.879Z,18.20
2018-11-05T10:47:50.057Z,32.00
2018-11-05T10:48:50.258Z,21.60
2018-11-05T10:49:50.433Z,18.10
2018-11-05T10:50:50.581Z,20.50
2018-11-05T10:51:50.795Z,21.30
2018-11-05T10:52:50.952Z,21.20
2018-11-05T10:53:51.128Z,21.00
2018-11-05T10:54:51.309Z,19.90
2018-11-05T10:55:51.500Z,20.90
2018-11-05T10:56:51.689Z,22.30
2018-11-05T10:57:51.861Z,19.70
2018-11-05T10:58:52.042Z,20.40
2018-11-05T10:59:52.222Z,18.80
2018-11-05T11:00:52.414Z,20.80
2018-11-05T11:01:52.586Z,19.80
2018-11-05T11:02:52.770Z,23.30
2018-11-05T11:03:53.025Z,23.10
2018-11-05T11:04:53.132Z,21.80
2018-11-05T11:05:53.317Z,19.70
2018-11-05T11:06:53.511Z,19.80
2018-11-05T11:07:53.673Z,21.00
2018-11-05T11:08:53.878Z,23.20
2018-11-05T11:09:54.031Z,24.00
2018-11-05T11:10:54.210Z,22.50
2018-11-05T11:11:54.399Z,23.90
2018-11-05T11:12:54.575Z,20.20
2018-11-05T11:13:54.755Z,22.70
2018-11-05T11:14:54.950Z,20.90
2018-11-05T11:15:55.117Z,22.70
2018-11-05T11:16:55.296Z,22.30
2018-11-05T11:17:55.475Z,23.50
2018-11-05T11:18:55.663Z,24.00
2018-11-05T11:19:55.852Z,21.90
2018-11-05T11:20:56.025Z,23.60
2018-11-05T11:21:56.265Z,23.20
2018-11-05T11:22:56.385Z,21.50
2018-11-05T11:23:56.550Z,22.10
2018-11-05T11:24:56.734Z,24.70
2018-11-05T11:25:56.917Z,25.30
2018-11-05T11:26:57.125Z,23.80
2018-11-05T11:27:57.481Z,22.00
2018-11-05T11:28:57.607Z,23.20
2018-11-05T11:29:57.659Z,22.70
2018-11-05T11:30:57.837Z,23.40
2018-11-05T11:31:58.023Z,22.40
2018-11-05T11:32:58.210Z,23.60
2018-11-05T11:33:58.393Z,24.50
2018-11-05T11:34:58.573Z,22.40
2018-11-05T11:35:58.747Z,23.60
2018-11-05T11:36:58.953Z,21.10
2018-11-05T11:37:59.111Z,23.40
2018-11-05T11:38:59.292Z,23.40
2018-11-05T11:39:59.535Z,23.50
2018-11-05T11:40:59.666Z,22.80
2018-11-05T11:41:59.862Z,22.10
2018-11-05T11:43:00.056Z,25.00
2018-11-05T11:44:00.221Z,25.10
2018-11-05T11:45:00.437Z,23.80
2018-11-05T11:46:00.609Z,23.00
2018-11-05T11:47:00.748Z,23.80
2018-11-05T11:48:00.931Z,23.80
2018-11-05T11:49:01.115Z,23.80
2018-11-05T11:50:01.289Z,22.10
2018-11-05T11:51:01.484Z,24.00
2018-11-05T11:52:01.666Z,23.00
2018-11-05T11:53:01.981Z,22.20
2018-11-05T11:54:01.985Z,24.60
2018-11-05T11:55:02.159Z,23.30
2018-11-05T11:56:02.348Z,25.80
2018-11-05T11:57:02.516Z,27.90
2018-11-05T11:58:02.705Z,25.40
2018-11-05T11:59:02.875Z,26.60
2018-11-05T12:00:03.091Z,25.20
2018-11-05T12:01:03.258Z,24.00
2018-11-05T12:02:03.413Z,23.90
2018-11-05T12:03:03.605Z,26.60
2018-11-05T12:04:05.135Z,24.10
2018-11-05T12:05:26.092Z,24.40
2018-11-05T12:06:04.118Z,25.10
2018-11-05T12:07:04.294Z,25.70
2018-11-05T12:08:04.480Z,24.50
2018-11-05T12:09:04.650Z,23.20
2018-11-05T12:10:04.823Z,26.30
2018-11-05T12:11:05.013Z,24.20
2018-11-05T12:12:05.517Z,26.40
2018-11-05T12:13:05.423Z,27.70
2018-11-05T12:14:05.630Z,27.40
2018-11-05T12:15:05.928Z,24.00
2018-11-05T12:16:05.938Z,28.90
2018-11-05T12:17:06.129Z,27.00
2018-11-05T12:18:06.282Z,25.40
2018-11-05T12:19:06.456Z,31.10
2018-11-05T12:20:06.914Z,28.00
2018-11-05T12:21:06.760Z,27.10
2018-11-05T12:22:06.955Z,26.70
2018-11-05T12:23:07.178Z,30.70
2018-11-05T12:24:07.323Z,34.30
2018-11-05T12:25:07.542Z,28.90
2018-11-05T12:26:07.676Z,31.20
2018-11-05T12:27:07.705Z,29.00
2018-11-05T12:28:07.877Z,27.70
2018-11-05T12:29:08.052Z,29.70
2018-11-05T12:30:08.256Z,28.30
2018-11-05T12:31:08.436Z,30.70
2018-11-05T12:32:08.610Z,26.00
2018-11-05T12:33:08.757Z,27.70
2018-11-05T12:34:08.915Z,26.20
2018-11-05T12:35:09.099Z,28.40
2018-11-05T12:37:09.421Z,28.40
2018-11-05T12:38:09.607Z,27.30
2018-11-05T12:39:09.771Z,25.90
2018-11-05T12:40:09.948Z,25.80
2018-11-05T12:41:10.143Z,25.60
2018-11-05T12:42:10.307Z,25.90
2018-11-05T12:43:10.525Z,27.80
2018-11-05T12:44:10.646Z,25.30
2018-11-05T12:45:10.932Z,24.20
2018-11-05T12:47:11.150Z,23.40
2018-11-05T12:48:11.346Z,25.80
2018-11-05T12:49:11.524Z,28.80
2018-11-05T12:50:11.693Z,26.90
2018-11-05T12:51:11.867Z,26.30
2018-11-05T12:52:12.078Z,25.50
2018-11-05T12:53:12.214Z,25.90
2018-11-05T12:54:12.385Z,28.50
2018-11-05T12:55:12.537Z,25.70
2018-11-05T12:56:12.722Z,25.20
2018-11-05T12:57:12.913Z,29.30
2018-11-05T12:58:13.047Z,28.20
2018-11-05T12:59:13.257Z,26.20
2018-11-05T13:00:13.423Z,25.30
2018-11-05T13:01:13.627Z,23.70